Aérodrome :
LOGIN :

S'inscrire | Disclaimer

   EN    FR    IT 

 










Légende :    VFR   VFR Marginal   IFR   IFR Intensif   IFR Très Intensif
Visi : 
Plafond : 
>= 8 km
>= 3000ft
5 à 8 km
1000 à 3000 ft
1500m à 5 km
500 à 1000 ft
800 à 1500m
200 à 500 ft
< 800m
< 200 ft
Symboles :   Orages  Brouillard  Fortes neiges  Fortes précipitations  Vent > 20 kt
SIGMETs :   Divers  Orages  Givrage  Turbulence  Onde Orograph.  Cendres Volcan.







- Altitude de l'aérodrome : 302 ft
- Code IATA : CGN


EDDK - Cologne Bonn

DERNIER METAR :
  • 231550Z 36007KT 320V030 9999 FEW034 18/11 Q1022 NOSIG

METARs EXPIRÉS :
  • 231520Z 32005KT 290V350 9999 FEW034 18/12 Q1022 NOSIG
  • 231450Z 34006KT 270V030 9999 FEW033 18/11 Q1022 NOSIG
  • 231420Z 36004KT 9999 FEW032 18/12 Q1022 NOSIG
  • 231350Z 32004KT 250V010 9999 FEW032 19/12 Q1023 NOSIG
  • 231320Z 27006KT 230V340 9999 SCT029 19/12 Q1023 NOSIG

TAF TAF EDDK
Valide du 23 à 12h jusqu'au 24 à 18h UTC


231100Z 2312/2418 33005KT 9999 SCT030
BECMG 2316/2319 VRB02KT
BECMG 2404/2406 3500 BR
PROB30
TEMPO 2407/2409 2000 BR BKN005
BECMG 2409/2412 04005KT 9999
Pas de NOTAMs connus pour ce terrain.



MET'MAP, la Météo Aéronautique d'un coup d'oeil ! - Copyright ORBIFLY Décembre 2007 - Disclaimer

ORBIFLY MET'MAP TEAM :

Programmation & Développement : Alexandra Zaïnal
Conception & Développement : Baudouin d'Aumeries
Co-Programmation & Développement : Marc-Olivier Méhu
Soutien technique & logistique : Manuel Goepfert

Contact : metmap@orbifly.com




SOURCES & CREDITS :

   NOAA